Pagrindinis puslapis
METAR-TAF:

METAR-TAF

Oro uostai :

Čingdao, Kinija

platuma: 36-04N, ilguma: 120-20E, Aukštis: 77 m

Dabartinis oras

Ataskaita buvo paskelbta 44 minutes, ne 13:00 UTC
Vėjas 6 kt iš Pietų/Pietryčių
Temperatūra 12°C
Drėgmė 67%
Slėgis 1026 hPa
Matomumas 10 km arba daugiau
Išsisklaidę debesys ne aukštis 5000 ft

METAR: ZSQD 211300Z 15003MPS 9999 SCT050 12/06 Q1026 NOSIG

Laikas: 21:44 (13:44 UTC)

Prognozė

Ataskaita buvo paskelbta 4 valandos ir 24 minutes, ne 09:20 UTC
Prognozė galioja nuo 21 metu 12 UTC su 22 metu 12 UTC
Vėjas 12 kt iš Pietų/Pietryčių
Matomumas 10 km arba daugiau
Su prošvaistėmis ne aukštis 3000 ft

TAF: ZSQD 210920Z 2112/2212 16006MPS 9999 BKN030 TX16/2206Z TN07/2121Z

Orai ataskaitas ir orų prognozės (METAR, TAF).

turimą stotys yra geltonos ir raudonos taškus žemėlapyje.

Perkelti pele per norėdami pamatyti stoties vardą.

Tada spustelėkite, norėdami matyti oro stebėjimo ir prognozės.

Norėdami pakeisti žemėlapį: spustelėkite ant žalios mygtukų su juodo kryžiaus žemyn,; žalią mygtuką su brūkšneliu, jei norite nutolinti; arba žalių rodyklių gretimoms žemėlapius.


METAR-TAF: